sensor_id;sensor_type;location;lat;lon;timestamp;P1;durP1;ratioP1;P2;durP2;ratioP2
31386;SDS011;69978;50.096;8.448;2023-11-18T00:01:49;21.88;;;6.00;;
31386;SDS011;69978;50.096;8.448;2023-11-18T00:04:15;18.85;;;6.18;;
31386;SDS011;69978;50.096;8.448;2023-11-18T00:06:41;19.45;;;6.28;;
31386;SDS011;69978;50.096;8.448;2023-11-18T00:09:12;17.63;;;5.68;;
31386;SDS011;69978;50.096;8.448;2023-11-18T00:11:40;16.50;;;5.70;;
31386;SDS011;69978;50.096;8.448;2023-11-18T00:14:07;19.58;;;6.30;;
31386;SDS011;69978;50.096;8.448;2023-11-18T00:16:33;18.45;;;5.95;;
31386;SDS011;69978;50.096;8.448;2023-11-18T00:18:59;15.40;;;5.45;;
31386;SDS011;69978;50.096;8.448;2023-11-18T00:21:26;18.55;;;6.25;;
31386;SDS011;69978;50.096;8.448;2023-11-18T00:23:52;14.45;;;5.75;;
31386;SDS011;69978;50.096;8.448;2023-11-18T00:26:18;17.88;;;5.70;;
31386;SDS011;69978;50.096;8.448;2023-11-18T00:28:44;14.48;;;5.32;;
31386;SDS011;69978;50.096;8.448;2023-11-18T00:31:09;15.63;;;4.97;;
31386;SDS011;69978;50.096;8.448;2023-11-18T00:33:35;16.05;;;5.60;;
31386;SDS011;69978;50.096;8.448;2023-11-18T00:36:01;13.25;;;5.20;;
31386;SDS011;69978;50.096;8.448;2023-11-18T00:38:27;13.18;;;4.43;;
31386;SDS011;69978;50.096;8.448;2023-11-18T00:40:53;14.65;;;4.80;;
31386;SDS011;69978;50.096;8.448;2023-11-18T00:43:18;20.40;;;5.53;;
31386;SDS011;69978;50.096;8.448;2023-11-18T00:45:44;15.30;;;4.78;;
31386;SDS011;69978;50.096;8.448;2023-11-18T00:48:09;23.05;;;5.43;;
31386;SDS011;69978;50.096;8.448;2023-11-18T00:50:35;14.13;;;5.35;;
31386;SDS011;69978;50.096;8.448;2023-11-18T00:53:01;16.67;;;5.20;;
31386;SDS011;69978;50.096;8.448;2023-11-18T00:55:27;13.68;;;5.13;;
31386;SDS011;69978;50.096;8.448;2023-11-18T00:57:52;15.02;;;5.45;;
31386;SDS011;69978;50.096;8.448;2023-11-18T01:00:18;16.85;;;5.03;;
31386;SDS011;69978;50.096;8.448;2023-11-18T01:02:46;12.88;;;4.63;;
31386;SDS011;69978;50.096;8.448;2023-11-18T01:05:14;15.68;;;5.85;;
31386;SDS011;69978;50.096;8.448;2023-11-18T01:07:40;15.63;;;4.75;;
31386;SDS011;69978;50.096;8.448;2023-11-18T01:10:06;16.60;;;6.03;;
31386;SDS011;69978;50.096;8.448;2023-11-18T01:12:33;18.10;;;5.95;;
31386;SDS011;69978;50.096;8.448;2023-11-18T01:14:58;21.05;;;7.20;;
31386;SDS011;69978;50.096;8.448;2023-11-18T01:17:24;19.63;;;6.00;;
31386;SDS011;69978;50.096;8.448;2023-11-18T01:19:50;19.33;;;5.90;;
31386;SDS011;69978;50.096;8.448;2023-11-18T01:22:15;16.05;;;5.60;;
31386;SDS011;69978;50.096;8.448;2023-11-18T01:24:43;15.40;;;5.20;;
31386;SDS011;69978;50.096;8.448;2023-11-18T01:27:09;18.30;;;5.32;;
31386;SDS011;69978;50.096;8.448;2023-11-18T01:29:36;15.57;;;5.22;;
31386;SDS011;69978;50.096;8.448;2023-11-18T01:32:01;18.90;;;6.00;;
31386;SDS011;69978;50.096;8.448;2023-11-18T01:34:34;13.00;;;4.40;;
31386;SDS011;69978;50.096;8.448;2023-11-18T01:37:04;15.30;;;5.30;;
31386;SDS011;69978;50.096;8.448;2023-11-18T01:39:32;15.85;;;4.95;;
31386;SDS011;69978;50.096;8.448;2023-11-18T01:41:58;16.48;;;5.50;;
31386;SDS011;69978;50.096;8.448;2023-11-18T01:44:24;12.60;;;5.18;;
31386;SDS011;69978;50.096;8.448;2023-11-18T01:46:53;15.73;;;5.07;;
31386;SDS011;69978;50.096;8.448;2023-11-18T01:49:22;19.13;;;5.03;;
31386;SDS011;69978;50.096;8.448;2023-11-18T01:51:49;15.55;;;4.97;;
31386;SDS011;69978;50.096;8.448;2023-11-18T01:54:21;16.13;;;5.03;;
31386;SDS011;69978;50.096;8.448;2023-11-18T01:56:49;17.48;;;5.32;;
31386;SDS011;69978;50.096;8.448;2023-11-18T01:59:15;14.75;;;5.57;;
31386;SDS011;69978;50.096;8.448;2023-11-18T02:01:50;13.20;;;4.65;;
31386;SDS011;69978;50.096;8.448;2023-11-18T02:04:19;15.45;;;5.03;;
31386;SDS011;69978;50.096;8.448;2023-11-18T02:06:46;16.25;;;5.07;;
31386;SDS011;69978;50.096;8.448;2023-11-18T02:09:21;13.63;;;5.35;;
31386;SDS011;69978;50.096;8.448;2023-11-18T02:14:48;24.23;;;5.43;;
31386;SDS011;69978;50.096;8.448;2023-11-18T02:17:20;13.15;;;4.97;;
31386;SDS011;69978;50.096;8.448;2023-11-18T02:19:50;18.70;;;5.43;;
31386;SDS011;69978;50.096;8.448;2023-11-18T02:22:20;15.15;;;4.80;;
31386;SDS011;69978;50.096;8.448;2023-11-18T02:24:47;14.35;;;4.75;;
31386;SDS011;69978;50.096;8.448;2023-11-18T02:27:13;14.65;;;5.43;;
31386;SDS011;69978;50.096;8.448;2023-11-18T02:29:40;16.50;;;5.60;;
31386;SDS011;69978;50.096;8.448;2023-11-18T02:35:01;13.10;;;4.55;;
31386;SDS011;69978;50.096;8.448;2023-11-18T02:37:43;13.77;;;4.35;;
31386;SDS011;69978;50.096;8.448;2023-11-18T02:40:33;12.73;;;4.55;;
31386;SDS011;69978;50.096;8.448;2023-11-18T02:43:00;13.90;;;5.03;;
31386;SDS011;69978;50.096;8.448;2023-11-18T02:45:30;13.05;;;4.22;;
31386;SDS011;69978;50.096;8.448;2023-11-18T02:47:57;13.95;;;4.22;;
31386;SDS011;69978;50.096;8.448;2023-11-18T02:50:25;14.43;;;4.00;;
31386;SDS011;69978;50.096;8.448;2023-11-18T02:52:52;10.80;;;4.05;;
31386;SDS011;69978;50.096;8.448;2023-11-18T02:55:19;13.60;;;4.15;;
31386;SDS011;69978;50.096;8.448;2023-11-18T02:57:46;13.35;;;4.10;;
31386;SDS011;69978;50.096;8.448;2023-11-18T03:00:12;11.18;;;4.18;;
31386;SDS011;69978;50.096;8.448;2023-11-18T03:02:47;15.55;;;3.97;;
31386;SDS011;69978;50.096;8.448;2023-11-18T03:05:15;11.07;;;3.60;;
31386;SDS011;69978;50.096;8.448;2023-11-18T03:07:41;9.95;;;3.83;;
31386;SDS011;69978;50.096;8.448;2023-11-18T03:10:07;14.10;;;4.00;;
31386;SDS011;69978;50.096;8.448;2023-11-18T03:12:45;12.63;;;4.40;;
31386;SDS011;69978;50.096;8.448;2023-11-18T03:15:14;11.85;;;3.50;;
31386;SDS011;69978;50.096;8.448;2023-11-18T03:17:43;14.57;;;4.35;;
31386;SDS011;69978;50.096;8.448;2023-11-18T03:20:14;12.73;;;4.00;;
31386;SDS011;69978;50.096;8.448;2023-11-18T03:22:45;11.05;;;3.80;;
31386;SDS011;69978;50.096;8.448;2023-11-18T03:25:14;11.95;;;3.67;;
31386;SDS011;69978;50.096;8.448;2023-11-18T03:27:40;11.57;;;5.15;;
31386;SDS011;69978;50.096;8.448;2023-11-18T03:30:06;11.85;;;3.85;;
31386;SDS011;69978;50.096;8.448;2023-11-18T03:32:33;10.30;;;3.72;;
31386;SDS011;69978;50.096;8.448;2023-11-18T03:35:00;11.25;;;4.07;;
31386;SDS011;69978;50.096;8.448;2023-11-18T03:37:27;8.32;;;3.35;;
31386;SDS011;69978;50.096;8.448;2023-11-18T03:39:53;12.00;;;3.75;;
31386;SDS011;69978;50.096;8.448;2023-11-18T03:42:18;10.23;;;3.33;;
31386;SDS011;69978;50.096;8.448;2023-11-18T03:44:46;10.50;;;3.35;;
31386;SDS011;69978;50.096;8.448;2023-11-18T03:47:13;8.82;;;3.25;;
31386;SDS011;69978;50.096;8.448;2023-11-18T03:49:40;14.20;;;3.75;;
31386;SDS011;69978;50.096;8.448;2023-11-18T03:52:06;12.85;;;3.95;;
31386;SDS011;69978;50.096;8.448;2023-11-18T03:54:32;13.77;;;3.95;;
31386;SDS011;69978;50.096;8.448;2023-11-18T03:56:58;15.52;;;4.40;;
31386;SDS011;69978;50.096;8.448;2023-11-18T03:59:24;9.55;;;3.85;;
31386;SDS011;69978;50.096;8.448;2023-11-18T04:01:50;11.40;;;4.10;;
31386;SDS011;69978;50.096;8.448;2023-11-18T04:04:16;13.82;;;4.40;;
31386;SDS011;69978;50.096;8.448;2023-11-18T04:06:42;12.15;;;4.28;;
31386;SDS011;69978;50.096;8.448;2023-11-18T04:09:09;13.77;;;4.22;;
31386;SDS011;69978;50.096;8.448;2023-11-18T04:11:35;12.57;;;4.72;;
31386;SDS011;69978;50.096;8.448;2023-11-18T04:14:01;18.92;;;4.65;;
31386;SDS011;69978;50.096;8.448;2023-11-18T04:16:28;10.65;;;3.80;;
31386;SDS011;69978;50.096;8.448;2023-11-18T04:18:54;11.70;;;4.25;;
31386;SDS011;69978;50.096;8.448;2023-11-18T04:21:20;15.23;;;4.57;;
31386;SDS011;69978;50.096;8.448;2023-11-18T04:23:47;16.80;;;5.05;;
31386;SDS011;69978;50.096;8.448;2023-11-18T04:26:13;10.27;;;4.07;;
31386;SDS011;69978;50.096;8.448;2023-11-18T04:28:38;13.52;;;4.20;;
31386;SDS011;69978;50.096;8.448;2023-11-18T04:31:04;11.05;;;3.75;;
31386;SDS011;69978;50.096;8.448;2023-11-18T04:33:30;10.20;;;3.17;;
31386;SDS011;69978;50.096;8.448;2023-11-18T04:35:56;9.55;;;3.55;;
31386;SDS011;69978;50.096;8.448;2023-11-18T04:38:23;9.38;;;3.33;;
31386;SDS011;69978;50.096;8.448;2023-11-18T04:40:50;10.23;;;3.72;;
31386;SDS011;69978;50.096;8.448;2023-11-18T04:43:20;13.38;;;3.33;;
31386;SDS011;69978;50.096;8.448;2023-11-18T04:45:47;10.95;;;3.30;;
31386;SDS011;69978;50.096;8.448;2023-11-18T04:48:12;10.10;;;3.17;;
31386;SDS011;69978;50.096;8.448;2023-11-18T04:50:41;11.80;;;3.15;;
31386;SDS011;69978;50.096;8.448;2023-11-18T04:53:07;12.05;;;3.17;;
31386;SDS011;69978;50.096;8.448;2023-11-18T04:55:35;11.25;;;2.92;;
31386;SDS011;69978;50.096;8.448;2023-11-18T04:58:01;8.57;;;3.17;;
31386;SDS011;69978;50.096;8.448;2023-11-18T05:00:27;7.40;;;2.72;;
31386;SDS011;69978;50.096;8.448;2023-11-18T05:02:53;8.90;;;3.22;;
31386;SDS011;69978;50.096;8.448;2023-11-18T05:05:19;9.73;;;3.05;;
31386;SDS011;69978;50.096;8.448;2023-11-18T05:07:46;8.65;;;2.80;;
31386;SDS011;69978;50.096;8.448;2023-11-18T05:10:12;9.85;;;3.38;;
31386;SDS011;69978;50.096;8.448;2023-11-18T05:12:38;11.50;;;3.60;;
31386;SDS011;69978;50.096;8.448;2023-11-18T05:15:04;12.25;;;3.60;;
31386;SDS011;69978;50.096;8.448;2023-11-18T05:17:33;11.43;;;3.33;;
31386;SDS011;69978;50.096;8.448;2023-11-18T05:20:03;12.95;;;4.35;;
31386;SDS011;69978;50.096;8.448;2023-11-18T05:22:29;15.77;;;4.05;;
31386;SDS011;69978;50.096;8.448;2023-11-18T05:24:54;20.70;;;4.15;;
31386;SDS011;69978;50.096;8.448;2023-11-18T05:27:20;14.73;;;4.13;;
31386;SDS011;69978;50.096;8.448;2023-11-18T05:29:45;14.65;;;3.97;;
31386;SDS011;69978;50.096;8.448;2023-11-18T05:32:19;14.68;;;4.53;;
31386;SDS011;69978;50.096;8.448;2023-11-18T05:34:48;15.30;;;3.33;;
31386;SDS011;69978;50.096;8.448;2023-11-18T05:37:15;15.38;;;3.95;;
31386;SDS011;69978;50.096;8.448;2023-11-18T05:39:43;13.20;;;3.13;;
31386;SDS011;69978;50.096;8.448;2023-11-18T05:42:10;17.35;;;3.72;;
31386;SDS011;69978;50.096;8.448;2023-11-18T05:44:36;10.75;;;3.97;;
31386;SDS011;69978;50.096;8.448;2023-11-18T05:47:04;20.05;;;4.05;;
31386;SDS011;69978;50.096;8.448;2023-11-18T05:49:31;14.25;;;3.67;;
31386;SDS011;69978;50.096;8.448;2023-11-18T05:52:00;16.23;;;4.35;;
31386;SDS011;69978;50.096;8.448;2023-11-18T05:54:26;14.98;;;4.18;;
31386;SDS011;69978;50.096;8.448;2023-11-18T05:56:51;17.10;;;4.40;;
31386;SDS011;69978;50.096;8.448;2023-11-18T05:59:18;23.30;;;4.18;;
31386;SDS011;69978;50.096;8.448;2023-11-18T06:01:44;12.38;;;3.65;;
31386;SDS011;69978;50.096;8.448;2023-11-18T06:04:12;25.65;;;4.22;;
31386;SDS011;69978;50.096;8.448;2023-11-18T06:06:38;25.17;;;4.90;;
31386;SDS011;69978;50.096;8.448;2023-11-18T06:09:04;17.83;;;4.63;;
31386;SDS011;69978;50.096;8.448;2023-11-18T06:11:33;18.92;;;4.90;;
31386;SDS011;69978;50.096;8.448;2023-11-18T06:14:00;20.40;;;4.40;;
31386;SDS011;69978;50.096;8.448;2023-11-18T06:16:26;28.00;;;4.82;;
31386;SDS011;69978;50.096;8.448;2023-11-18T06:18:53;23.55;;;4.93;;
31386;SDS011;69978;50.096;8.448;2023-11-18T06:21:20;27.75;;;4.32;;
31386;SDS011;69978;50.096;8.448;2023-11-18T06:23:53;21.33;;;5.13;;
31386;SDS011;69978;50.096;8.448;2023-11-18T06:26:20;26.77;;;4.70;;
31386;SDS011;69978;50.096;8.448;2023-11-18T06:28:48;18.10;;;4.93;;
31386;SDS011;69978;50.096;8.448;2023-11-18T06:31:17;18.05;;;4.93;;
31386;SDS011;69978;50.096;8.448;2023-11-18T06:33:44;27.05;;;5.00;;
31386;SDS011;69978;50.096;8.448;2023-11-18T06:38:38;28.25;;;4.68;;
31386;SDS011;69978;50.096;8.448;2023-11-18T06:41:05;22.98;;;5.38;;
31386;SDS011;69978;50.096;8.448;2023-11-18T06:43:34;16.23;;;4.57;;
31386;SDS011;69978;50.096;8.448;2023-11-18T06:46:18;17.67;;;4.28;;
31386;SDS011;69978;50.096;8.448;2023-11-18T06:48:45;23.63;;;4.60;;
31386;SDS011;69978;50.096;8.448;2023-11-18T06:51:15;35.63;;;5.18;;
31386;SDS011;69978;50.096;8.448;2023-11-18T06:53:41;29.35;;;5.72;;
31386;SDS011;69978;50.096;8.448;2023-11-18T06:56:09;22.67;;;5.45;;
31386;SDS011;69978;50.096;8.448;2023-11-18T06:58:37;22.70;;;4.88;;
31386;SDS011;69978;50.096;8.448;2023-11-18T07:01:03;22.02;;;5.25;;
31386;SDS011;69978;50.096;8.448;2023-11-18T07:03:31;23.00;;;5.47;;
31386;SDS011;69978;50.096;8.448;2023-11-18T07:05:56;18.70;;;4.95;;
31386;SDS011;69978;50.096;8.448;2023-11-18T07:08:22;19.73;;;5.55;;
31386;SDS011;69978;50.096;8.448;2023-11-18T07:10:49;19.30;;;4.85;;
31386;SDS011;69978;50.096;8.448;2023-11-18T07:13:14;24.48;;;5.72;;
31386;SDS011;69978;50.096;8.448;2023-11-18T07:15:41;24.50;;;5.25;;
31386;SDS011;69978;50.096;8.448;2023-11-18T07:18:07;32.33;;;6.30;;
31386;SDS011;69978;50.096;8.448;2023-11-18T07:20:34;27.77;;;6.20;;
31386;SDS011;69978;50.096;8.448;2023-11-18T07:23:00;23.85;;;6.00;;
31386;SDS011;69978;50.096;8.448;2023-11-18T07:25:25;23.67;;;6.35;;
31386;SDS011;69978;50.096;8.448;2023-11-18T07:27:51;21.20;;;5.88;;
31386;SDS011;69978;50.096;8.448;2023-11-18T07:30:16;20.17;;;5.78;;
31386;SDS011;69978;50.096;8.448;2023-11-18T07:32:43;32.45;;;6.88;;
31386;SDS011;69978;50.096;8.448;2023-11-18T07:35:09;27.75;;;6.47;;
31386;SDS011;69978;50.096;8.448;2023-11-18T07:37:37;25.25;;;5.78;;
31386;SDS011;69978;50.096;8.448;2023-11-18T07:40:04;24.40;;;5.88;;
31386;SDS011;69978;50.096;8.448;2023-11-18T07:42:33;23.20;;;5.45;;
31386;SDS011;69978;50.096;8.448;2023-11-18T07:44:59;24.50;;;5.93;;
31386;SDS011;69978;50.096;8.448;2023-11-18T07:47:29;18.67;;;5.25;;
31386;SDS011;69978;50.096;8.448;2023-11-18T07:49:56;32.67;;;6.30;;
31386;SDS011;69978;50.096;8.448;2023-11-18T07:52:24;27.77;;;6.13;;
31386;SDS011;69978;50.096;8.448;2023-11-18T07:54:52;20.27;;;5.65;;
31386;SDS011;69978;50.096;8.448;2023-11-18T07:57:18;22.60;;;6.35;;
31386;SDS011;69978;50.096;8.448;2023-11-18T07:59:43;26.88;;;6.05;;
31386;SDS011;69978;50.096;8.448;2023-11-18T08:02:09;24.50;;;6.38;;
31386;SDS011;69978;50.096;8.448;2023-11-18T08:04:35;26.90;;;6.45;;
31386;SDS011;69978;50.096;8.448;2023-11-18T08:07:01;32.28;;;7.07;;
31386;SDS011;69978;50.096;8.448;2023-11-18T08:09:29;23.50;;;6.22;;
31386;SDS011;69978;50.096;8.448;2023-11-18T08:11:56;29.42;;;6.30;;
31386;SDS011;69978;50.096;8.448;2023-11-18T08:14:23;23.70;;;6.32;;
31386;SDS011;69978;50.096;8.448;2023-11-18T08:16:49;24.45;;;5.97;;
31386;SDS011;69978;50.096;8.448;2023-11-18T08:19:16;23.80;;;5.95;;
31386;SDS011;69978;50.096;8.448;2023-11-18T08:21:41;23.25;;;5.78;;
31386;SDS011;69978;50.096;8.448;2023-11-18T08:24:07;22.02;;;6.25;;
31386;SDS011;69978;50.096;8.448;2023-11-18T08:26:34;25.38;;;5.80;;
31386;SDS011;69978;50.096;8.448;2023-11-18T08:29:00;22.50;;;5.63;;
31386;SDS011;69978;50.096;8.448;2023-11-18T08:31:26;27.17;;;6.43;;
31386;SDS011;69978;50.096;8.448;2023-11-18T08:33:52;27.95;;;6.72;;
31386;SDS011;69978;50.096;8.448;2023-11-18T08:36:19;27.48;;;6.00;;
31386;SDS011;69978;50.096;8.448;2023-11-18T08:38:48;21.52;;;5.85;;
31386;SDS011;69978;50.096;8.448;2023-11-18T08:41:14;21.08;;;5.85;;
31386;SDS011;69978;50.096;8.448;2023-11-18T08:43:40;21.52;;;5.30;;
31386;SDS011;69978;50.096;8.448;2023-11-18T08:46:11;23.55;;;5.95;;
31386;SDS011;69978;50.096;8.448;2023-11-18T08:48:39;22.35;;;5.75;;
31386;SDS011;69978;50.096;8.448;2023-11-18T08:51:04;23.88;;;6.00;;
31386;SDS011;69978;50.096;8.448;2023-11-18T08:53:33;28.52;;;6.70;;
31386;SDS011;69978;50.096;8.448;2023-11-18T08:58:40;26.98;;;6.45;;
31386;SDS011;69978;50.096;8.448;2023-11-18T09:01:09;28.73;;;7.53;;
31386;SDS011;69978;50.096;8.448;2023-11-18T09:03:38;24.92;;;6.07;;
31386;SDS011;69978;50.096;8.448;2023-11-18T09:06:08;28.38;;;7.15;;
31386;SDS011;69978;50.096;8.448;2023-11-18T09:08:44;23.52;;;6.75;;
31386;SDS011;69978;50.096;8.448;2023-11-18T09:11:11;22.30;;;6.53;;
31386;SDS011;69978;50.096;8.448;2023-11-18T09:13:45;29.25;;;7.38;;
31386;SDS011;69978;50.096;8.448;2023-11-18T09:16:18;24.33;;;6.82;;
31386;SDS011;69978;50.096;8.448;2023-11-18T09:18:50;31.35;;;7.22;;
31386;SDS011;69978;50.096;8.448;2023-11-18T09:21:16;27.73;;;7.38;;
31386;SDS011;69978;50.096;8.448;2023-11-18T09:23:44;30.67;;;8.23;;
31386;SDS011;69978;50.096;8.448;2023-11-18T09:26:12;29.48;;;7.13;;
31386;SDS011;69978;50.096;8.448;2023-11-18T09:28:39;28.08;;;7.35;;
31386;SDS011;69978;50.096;8.448;2023-11-18T09:31:05;37.88;;;8.27;;
31386;SDS011;69978;50.096;8.448;2023-11-18T09:33:36;31.90;;;8.23;;
31386;SDS011;69978;50.096;8.448;2023-11-18T09:38:32;31.00;;;7.95;;
31386;SDS011;69978;50.096;8.448;2023-11-18T09:41:02;32.63;;;8.25;;
31386;SDS011;69978;50.096;8.448;2023-11-18T09:43:32;36.83;;;8.52;;
31386;SDS011;69978;50.096;8.448;2023-11-18T09:46:07;46.45;;;10.38;;
31386;SDS011;69978;50.096;8.448;2023-11-18T09:48:47;41.42;;;9.52;;
31386;SDS011;69978;50.096;8.448;2023-11-18T09:51:25;50.80;;;10.35;;
31386;SDS011;69978;50.096;8.448;2023-11-18T09:53:58;61.78;;;10.18;;
31386;SDS011;69978;50.096;8.448;2023-11-18T09:59:18;46.60;;;10.20;;
31386;SDS011;69978;50.096;8.448;2023-11-18T10:01:53;46.25;;;9.43;;
31386;SDS011;69978;50.096;8.448;2023-11-18T10:04:23;42.88;;;9.85;;
31386;SDS011;69978;50.096;8.448;2023-11-18T10:06:52;47.20;;;10.20;;
31386;SDS011;69978;50.096;8.448;2023-11-18T10:09:19;50.88;;;10.70;;
31386;SDS011;69978;50.096;8.448;2023-11-18T10:11:53;50.40;;;9.73;;
31386;SDS011;69978;50.096;8.448;2023-11-18T10:14:25;60.67;;;11.13;;
31386;SDS011;69978;50.096;8.448;2023-11-18T10:16:51;51.25;;;10.65;;
31386;SDS011;69978;50.096;8.448;2023-11-18T10:19:19;46.80;;;10.98;;
31386;SDS011;69978;50.096;8.448;2023-11-18T10:21:45;50.42;;;10.90;;
31386;SDS011;69978;50.096;8.448;2023-11-18T10:24:14;52.72;;;10.15;;
31386;SDS011;69978;50.096;8.448;2023-11-18T10:26:44;53.38;;;11.88;;
31386;SDS011;69978;50.096;8.448;2023-11-18T10:29:23;57.67;;;11.77;;
31386;SDS011;69978;50.096;8.448;2023-11-18T10:32:01;77.30;;;11.45;;
31386;SDS011;69978;50.096;8.448;2023-11-18T10:34:35;61.25;;;11.93;;
31386;SDS011;69978;50.096;8.448;2023-11-18T10:37:01;50.78;;;10.95;;
31386;SDS011;69978;50.096;8.448;2023-11-18T10:39:29;66.03;;;12.43;;
31386;SDS011;69978;50.096;8.448;2023-11-18T10:41:59;63.80;;;12.52;;
31386;SDS011;69978;50.096;8.448;2023-11-18T10:44:26;58.47;;;12.73;;
31386;SDS011;69978;50.096;8.448;2023-11-18T10:46:52;66.53;;;12.50;;
31386;SDS011;69978;50.096;8.448;2023-11-18T10:49:20;54.15;;;11.70;;
31386;SDS011;69978;50.096;8.448;2023-11-18T10:51:46;60.25;;;12.82;;
31386;SDS011;69978;50.096;8.448;2023-11-18T10:54:13;57.75;;;12.90;;
31386;SDS011;69978;50.096;8.448;2023-11-18T10:56:48;85.32;;;12.77;;
31386;SDS011;69978;50.096;8.448;2023-11-18T10:59:15;67.03;;;13.07;;
31386;SDS011;69978;50.096;8.448;2023-11-18T11:01:44;71.65;;;14.02;;
31386;SDS011;69978;50.096;8.448;2023-11-18T11:04:10;72.47;;;13.35;;
31386;SDS011;69978;50.096;8.448;2023-11-18T11:06:43;69.10;;;14.40;;
31386;SDS011;69978;50.096;8.448;2023-11-18T11:09:21;58.50;;;12.55;;
31386;SDS011;69978;50.096;8.448;2023-11-18T11:15:17;78.68;;;12.55;;
31386;SDS011;69978;50.096;8.448;2023-11-18T11:17:53;129.80;;;15.55;;
31386;SDS011;69978;50.096;8.448;2023-11-18T11:20:27;93.95;;;13.40;;
31386;SDS011;69978;50.096;8.448;2023-11-18T11:26:41;64.28;;;13.52;;
31386;SDS011;69978;50.096;8.448;2023-11-18T11:34:37;65.78;;;13.90;;
31386;SDS011;69978;50.096;8.448;2023-11-18T11:37:07;49.53;;;12.95;;
31386;SDS011;69978;50.096;8.448;2023-11-18T11:39:34;59.13;;;13.77;;
31386;SDS011;69978;50.096;8.448;2023-11-18T11:42:03;66.10;;;14.45;;
31386;SDS011;69978;50.096;8.448;2023-11-18T11:44:34;60.47;;;13.43;;
31386;SDS011;69978;50.096;8.448;2023-11-18T11:47:07;64.57;;;14.43;;
31386;SDS011;69978;50.096;8.448;2023-11-18T11:49:36;69.35;;;14.95;;
31386;SDS011;69978;50.096;8.448;2023-11-18T11:52:10;63.58;;;14.27;;
31386;SDS011;69978;50.096;8.448;2023-11-18T11:54:48;59.88;;;13.63;;
31386;SDS011;69978;50.096;8.448;2023-11-18T11:57:24;57.45;;;12.50;;
31386;SDS011;69978;50.096;8.448;2023-11-18T12:02:20;60.67;;;14.00;;
31386;SDS011;69978;50.096;8.448;2023-11-18T12:04:57;48.75;;;12.55;;
31386;SDS011;69978;50.096;8.448;2023-11-18T12:07:27;59.90;;;14.30;;
31386;SDS011;69978;50.096;8.448;2023-11-18T12:09:56;52.78;;;13.63;;
31386;SDS011;69978;50.096;8.448;2023-11-18T12:12:23;54.03;;;14.55;;
31386;SDS011;69978;50.096;8.448;2023-11-18T12:14:54;70.43;;;14.27;;
31386;SDS011;69978;50.096;8.448;2023-11-18T12:17:21;59.65;;;14.75;;
31386;SDS011;69978;50.096;8.448;2023-11-18T12:19:48;57.08;;;13.82;;
31386;SDS011;69978;50.096;8.448;2023-11-18T12:22:15;44.75;;;12.52;;
31386;SDS011;69978;50.096;8.448;2023-11-18T12:32:58;41.85;;;11.85;;
31386;SDS011;69978;50.096;8.448;2023-11-18T12:41:41;44.75;;;12.55;;
31386;SDS011;69978;50.096;8.448;2023-11-18T12:46:52;48.30;;;13.60;;
31386;SDS011;69978;50.096;8.448;2023-11-18T12:49:23;44.55;;;12.60;;
31386;SDS011;69978;50.096;8.448;2023-11-18T12:51:50;50.13;;;12.57;;
31386;SDS011;69978;50.096;8.448;2023-11-18T12:54:17;41.38;;;12.43;;
31386;SDS011;69978;50.096;8.448;2023-11-18T12:56:52;41.78;;;11.80;;
31386;SDS011;69978;50.096;8.448;2023-11-18T12:59:19;38.20;;;11.05;;
31386;SDS011;69978;50.096;8.448;2023-11-18T13:01:49;39.40;;;11.20;;
31386;SDS011;69978;50.096;8.448;2023-11-18T13:04:28;45.33;;;11.68;;
31386;SDS011;69978;50.096;8.448;2023-11-18T13:06:55;39.72;;;11.38;;
31386;SDS011;69978;50.096;8.448;2023-11-18T13:09:21;41.55;;;11.40;;
31386;SDS011;69978;50.096;8.448;2023-11-18T13:11:54;48.33;;;13.05;;
31386;SDS011;69978;50.096;8.448;2023-11-18T13:14:22;35.83;;;11.98;;
31386;SDS011;69978;50.096;8.448;2023-11-18T13:16:50;30.88;;;10.93;;
31386;SDS011;69978;50.096;8.448;2023-11-18T13:19:28;30.90;;;10.55;;
31386;SDS011;69978;50.096;8.448;2023-11-18T13:24:24;32.47;;;11.30;;
31386;SDS011;69978;50.096;8.448;2023-11-18T13:26:52;33.40;;;10.40;;
31386;SDS011;69978;50.096;8.448;2023-11-18T13:29:20;33.97;;;10.35;;
31386;SDS011;69978;50.096;8.448;2023-11-18T13:31:47;33.75;;;10.57;;
31386;SDS011;69978;50.096;8.448;2023-11-18T13:34:13;32.80;;;10.77;;
31386;SDS011;69978;50.096;8.448;2023-11-18T13:36:40;37.60;;;11.13;;
31386;SDS011;69978;50.096;8.448;2023-11-18T13:39:08;36.97;;;10.88;;
31386;SDS011;69978;50.096;8.448;2023-11-18T13:41:41;29.10;;;9.50;;
31386;SDS011;69978;50.096;8.448;2023-11-18T13:44:07;23.17;;;7.95;;
31386;SDS011;69978;50.096;8.448;2023-11-18T13:46:37;24.10;;;8.05;;
31386;SDS011;69978;50.096;8.448;2023-11-18T13:49:14;18.42;;;6.15;;
31386;SDS011;69978;50.096;8.448;2023-11-18T13:51:41;19.40;;;6.47;;
31386;SDS011;69978;50.096;8.448;2023-11-18T13:54:08;18.30;;;6.72;;
31386;SDS011;69978;50.096;8.448;2023-11-18T13:56:34;18.33;;;6.32;;
31386;SDS011;69978;50.096;8.448;2023-11-18T13:59:00;16.17;;;5.63;;
31386;SDS011;69978;50.096;8.448;2023-11-18T14:01:25;15.50;;;5.70;;
31386;SDS011;69978;50.096;8.448;2023-11-18T14:03:52;12.15;;;5.35;;
31386;SDS011;69978;50.096;8.448;2023-11-18T14:06:21;15.95;;;5.18;;
31386;SDS011;69978;50.096;8.448;2023-11-18T14:08:47;13.48;;;5.60;;
31386;SDS011;69978;50.096;8.448;2023-11-18T14:11:13;17.20;;;5.63;;
31386;SDS011;69978;50.096;8.448;2023-11-18T14:13:39;12.77;;;5.68;;
31386;SDS011;69978;50.096;8.448;2023-11-18T14:16:04;17.35;;;5.70;;
31386;SDS011;69978;50.096;8.448;2023-11-18T14:18:34;16.77;;;4.97;;
31386;SDS011;69978;50.096;8.448;2023-11-18T14:21:01;17.13;;;5.45;;
31386;SDS011;69978;50.096;8.448;2023-11-18T14:23:27;19.00;;;6.80;;
31386;SDS011;69978;50.096;8.448;2023-11-18T14:25:52;16.90;;;6.28;;
31386;SDS011;69978;50.096;8.448;2023-11-18T14:28:18;14.93;;;5.32;;
31386;SDS011;69978;50.096;8.448;2023-11-18T14:30:44;15.02;;;5.35;;
31386;SDS011;69978;50.096;8.448;2023-11-18T14:33:11;16.00;;;5.53;;
31386;SDS011;69978;50.096;8.448;2023-11-18T14:35:37;18.25;;;5.75;;
31386;SDS011;69978;50.096;8.448;2023-11-18T14:38:06;17.75;;;5.55;;
31386;SDS011;69978;50.096;8.448;2023-11-18T14:40:33;17.67;;;5.30;;
31386;SDS011;69978;50.096;8.448;2023-11-18T14:42:59;12.43;;;4.78;;
31386;SDS011;69978;50.096;8.448;2023-11-18T14:45:24;14.05;;;4.80;;
31386;SDS011;69978;50.096;8.448;2023-11-18T14:47:50;11.02;;;4.57;;
31386;SDS011;69978;50.096;8.448;2023-11-18T14:50:20;11.18;;;4.00;;
31386;SDS011;69978;50.096;8.448;2023-11-18T14:52:47;12.90;;;5.05;;
31386;SDS011;69978;50.096;8.448;2023-11-18T14:55:16;11.30;;;4.40;;
31386;SDS011;69978;50.096;8.448;2023-11-18T14:57:43;10.23;;;4.55;;
31386;SDS011;69978;50.096;8.448;2023-11-18T15:00:09;11.15;;;4.57;;
31386;SDS011;69978;50.096;8.448;2023-11-18T15:02:53;11.00;;;4.33;;
31386;SDS011;69978;50.096;8.448;2023-11-18T15:05:20;18.17;;;5.53;;
31386;SDS011;69978;50.096;8.448;2023-11-18T15:07:53;17.90;;;5.65;;
31386;SDS011;69978;50.096;8.448;2023-11-18T15:10:21;13.52;;;5.25;;
31386;SDS011;69978;50.096;8.448;2023-11-18T15:12:57;11.68;;;4.25;;
31386;SDS011;69978;50.096;8.448;2023-11-18T15:15:26;14.35;;;4.82;;
31386;SDS011;69978;50.096;8.448;2023-11-18T15:17:59;13.50;;;4.28;;
31386;SDS011;69978;50.096;8.448;2023-11-18T15:20:28;11.80;;;4.20;;
31386;SDS011;69978;50.096;8.448;2023-11-18T15:22:54;12.25;;;3.70;;
31386;SDS011;69978;50.096;8.448;2023-11-18T15:25:21;15.00;;;4.07;;
31386;SDS011;69978;50.096;8.448;2023-11-18T15:27:47;13.52;;;3.97;;
31386;SDS011;69978;50.096;8.448;2023-11-18T15:30:13;10.55;;;3.17;;